Victor Giraldo

Scout - Millonarios
22 Apr 2027
Thursday
Process

Personality

Adaptability (3) Ambition (4) Controversy (6) Loyalty (9) Pressure (3) Professionalism (16) Sportsmanship (15) Temperament (16)

Profile

Coaching Style Democratic
License Continental B
Determination 14
Man Management 10
Motivating 11
Discipline 8
Job Satisfaction
79%
Fatigue
0%
Role Scout
Wage 98.8K p/w
Contract 14.03.2029

Performance

Behaviour Good
Training Effectiveness
33%
Player Development
70%
Injury Prevention
55%
Tactical Implementation
35%

Recent Events

Assessed a player now
Assessed a player now
Attended a recruitment meeting now
Recommended a transfer target now
Attended a recruitment meeting now
Attended a recruitment meeting now
Assessed a player 7d ago
Assessed a player 7d ago

Currently Monitoring

202
Player Club Status Ability Confidence Watched Last Observed Latest Vote
Florentino Luís Ipswich Town Active 149 / 143 40% 9 21.04.2027 -
Callum Doyle Wrexham Active 126 / 127 40% 4 21.04.2027 -
Alfie Whiteman Newport County Active 105 / 113 40% 2 21.04.2027 -
Lucas Da Cunha Como Active 137 / 152 40% 1 21.04.2027 -
Juan Diego Castillo Vitoria Guimaraes Active 127 / 126 40% 1 21.04.2027 -
Elia Boseggia Novara Active 107 / 114 40% 1 21.04.2027 -
Ignacio Suárez Hapoel Kfar Saba Active 111 / 114 40% 3 19.04.2027 -
Franco Romero Toluca Active 123 / 122 40% 8 19.04.2027 -
Francesco D'Alterio Ternana Active 106 / 110 40% 3 19.04.2027 -
Imrân Louza Watford Active 139 / 132 40% 1 19.04.2027 -
Bradley Mabunda SuperSport United Active 121 / 113 40% 1 19.04.2027 -
Viktor Johansson Stoke City Active 129 / 137 40% 1 16.04.2027 -
Michele Cerofolini Bari Active 122 / 121 40% 1 16.04.2027 -
Brian De Keersmaecker Oxford United Active 115 / 121 40% 3 15.04.2027 -
Antonino Gallo Lecce Active 131 / 138 40% 3 15.04.2027 -
Yussif Saidu Zaragoza Active 127 / 122 40% 3 15.04.2027 -
Lukas Jensen Millwall Active 119 / 113 40% 1 14.04.2027 -
Jordan Amissah Burton Albion Active 113 / 102 40% 1 14.04.2027 -
Daniel Iversen Preston Active 125 / 123 40% 1 13.04.2027 -
James Trafford Leeds United Active 152 / 143 40% 1 13.04.2027 -
Caoimhin Kelleher Brentford Active 150 / 156 40% 1 13.04.2027 -
Bart Verbruggen Brighton Active 161 / 153 40% 1 10.04.2027 -
Josh Keeley Luton Town Active 118 / 134 40% 1 10.04.2027 -
Robin Roefs Sunderland Active 146 / 141 40% 1 06.04.2027 -
Will Dennis Milton Keynes Dons Active 115 / 113 40% 1 06.04.2027 -
Mandla Erasmus SuperSport United Active 116 / 118 40% 5 04.04.2027 -
Adrien Truffert Bournemouth Active 159 / 156 40% 6 04.04.2027 -
Christian Krasnodar Active 139 / 131 40% 5 03.04.2027 -
Harry Clarke Preston Active 131 / 121 40% 3 03.04.2027 -
Abel Bretones Osasuna Active 141 / 144 40% 2 03.04.2027 -
Ronnie Edwards Queens Park Rangers Active 133 / 125 40% 1 02.04.2027 -
Josh Tymon Swansea City Active 120 / 121 40% 2 01.04.2027 -
Gabriel Gudmundsson Leeds United Active 134 / 136 40% 1 01.04.2027 -
Facundo Garcés Alavés Active 132 / 130 40% 2 31.03.2027 -
Andrea Carboni Monza Active 125 / 134 40% 1 31.03.2027 -
Ryan Sessegnon Fulham Active 153 / 150 40% 4 29.03.2027 -
Adam Wharton Crystal Palace Active 143 / 158 40% 3 28.03.2027 -
Ousmane Diomande Nottingham Forest Active 146 / 158 40% 2 27.03.2027 -
Yehor Yarmoliuk Brentford Active 149 / 145 40% 2 27.03.2027 -
Adam Randell Bristol City Active 124 / 125 40% 1 26.03.2027 -
Orkun Kökçü Besiktas Rejected 150 / 144 40% 1 26.03.2027 Needs More Info
Ramón Terrats Getafe Active 145 / 148 40% 2 24.03.2027 -
Nathan Collins Brentford Active 150 / 148 40% 4 24.03.2027 -
Kristoffer Lund Birmingham Active 131 / 127 40% 1 23.03.2027 -
Ethan Galbraith Swansea City Active 140 / 129 40% 2 22.03.2027 -
Derry Murkin Derby County Active 132 / 134 40% 2 21.03.2027 -
Nicolò Rovella Lazio Active 146 / 143 40% 1 21.03.2027 -
Max Bird Birmingham Active 131 / 132 40% 3 13.03.2027 -
Murillo Nottingham Forest Active 144 / 146 40% 1 10.03.2027 -
Tristan Crama Millwall Active 133 / 131 40% 1 10.03.2027 -
Aidan Morris Middlesbrough Active 126 / 123 40% 3 08.03.2027 -
Juanlu Bournemouth Active 148 / 146 40% 4 08.03.2027 -
Vinicius Tobias Shakhtar Active 138 / 126 40% 2 08.03.2027 -
Williams Manyama SuperSport United Active 113 / 121 40% 2 07.03.2027 -
Japhet Tanganga Sheffield United Active 136 / 132 40% 1 07.03.2027 -
Shea Charles Southampton Active 139 / 128 40% 3 05.03.2027 -
Tim Iroegbunam Hull City Active 142 / 142 40% 1 05.03.2027 -
Milan van Ewijk Mansfield Town Active 135 / 135 40% 3 03.03.2027 -
Ilay Camara Anderlecht Active 136 / 138 40% 2 01.03.2027 -
Will Fish Cardiff City Active 117 / 122 40% 1 01.03.2027 -
Michael Kayode Brentford Active 144 / 145 40% 2 28.02.2027 -
Quinten Timber Crystal Palace Active 150 / 153 40% 3 27.02.2027 -
Aaron Hickey Brentford Active 140 / 140 40% 1 26.02.2027 -
Israel Reyes CSKA Moscow Active 141 / 131 40% 8 24.02.2027 -
Óscar Mingueza Crystal Palace Active 151 / 156 40% 5 24.02.2027 -
Nicolás Fernández Mercau Shakhtar Active 140 / 132 40% 2 24.02.2027 -
Tomás Ribeiro Cultural Leonesa Active 114 / 113 40% 3 22.02.2027 -
Ethan Pye Stockport County Active 113 / 117 40% 1 21.02.2027 -
Ben Nelson Leicester City Active 128 / 128 40% 1 21.02.2027 -
Noah Sadiki Sunderland Active 146 / 151 40% 1 14.02.2027 -
Tariq Lamptey Queens Park Rangers Active 133 / 133 40% 1 14.02.2027 -
Gustavo Mantuan Zenit Active 134 / 134 40% 1 08.02.2027 -
Jacques Ekomié Wrexham Active 125 / 131 40% 2 04.02.2027 -
Toby Collyer West Bromwich Albion Active 136 / 132 40% 3 04.02.2027 -
Bobby Thomas Coventry City Active 142 / 134 40% 1 01.02.2027 -
Dara O'Shea Ipswich Town Active 142 / 134 40% 2 30.01.2027 -
Josen Escobar Al Ahli Active 118 / 128 40% 1 29.01.2027 -
Alessandro Buongiorno Sassuolo Active 160 / 163 40% 1 27.01.2027 -
Álex Centelles Levski Active 118 / 124 40% 1 22.01.2027 -
Max Johnston Derby County Active 115 / 125 40% 1 20.01.2027 -
Rubens Dinamo Moscow Active 134 / 127 40% 1 19.01.2027 -
Robert-Jan Vanwesemael Sint-Truiden Active 128 / 112 40% 1 19.01.2027 -
Marlon Gomes Shakhtar Active 141 / 142 40% 1 16.01.2027 -
Victor Parada Spartak Moscow Active 131 / 126 40% 1 15.01.2027 -
Leif Davis Ipswich Town Active 143 / 139 40% 1 15.01.2027 -
Nazareno Colombo Racing Club Active 130 / 123 40% 1 15.01.2027 -
Kevin Amaro Racing Genk Active 124 / 129 40% 1 11.01.2027 -
Pelle Mattsson Norwich City Active 129 / 127 40% 1 08.01.2027 -
Brian Figueroa Morelia Active 99 / 105 40% 1 22.12.2026 -
Carlos Forbs Club Brugge Active 138 / 130 40% 1 22.12.2026 -
Jhon Velásquez Fortaleza CEIF Active 102 / 114 72% 1 02.12.2026 Approve
Franco Ibarra Rosario Central Active 125 / 125 40% 1 01.12.2026 -
Augusto Schott Talleres Active 120 / 124 40% 1 01.12.2026 -
Yousef Salech Cardiff City Active 121 / 117 40% 1 30.11.2026 -
Ollie Watkins Al-Hilal Active 155 / 156 40% 1 30.11.2026 -
Samuel Essende Young Boys Active 124 / 130 40% 1 30.11.2026 -
Santiago González Tigre Active 133 / 129 40% 4 28.11.2026 -
Georges-Kévin Nkoudou Al-Diriyah Active 140 / 129 40% 1 28.11.2026 -
Lewis Morgan SuperSport United Active 128 / 116 40% 3 27.11.2026 -
David Zapata Sheffield Wednesday Active 150 / 143 40% 2 27.11.2026 -
Joaquín García Vélez Active 126 / 127 40% 4 26.11.2026 -
Jackson Muleka Konyaspor Active 134 / 130 40% 1 26.11.2026 -
Ulises Ortegoza Talleres Active 121 / 125 40% 2 24.11.2026 -
Rubén Duarte Legia Active 132 / 127 40% 2 24.11.2026 -
Alex Luna Instituto Active 121 / 128 40% 2 24.11.2026 -
Marco Asensio Fenerbahce Active 149 / 150 40% 3 22.11.2026 -
Gastón Lodico Racing Club Active 122 / 125 40% 1 22.11.2026 -
Randall Rodríguez River Plate Active 109 / 117 40% 2 21.11.2026 -
Murphy Cooper Plymouth Argyle Active 118 / 117 40% 2 21.11.2026 -
Diego Rossi Monterrey Active 131 / 130 40% 4 20.11.2026 -
Ozziel Herrera Tigres Active 118 / 124 40% 4 20.11.2026 -
Luis Romo Guadalajara Active 130 / 131 40% 5 20.11.2026 -
Oussama Idrissi Pachuca Active 131 / 132 40% 5 19.11.2026 -
Sergio Arribas Almería Active 144 / 133 40% 1 19.11.2026 -
Franco Pardo Santos Laguna Active 126 / 121 40% 2 18.11.2026 -
Víctor Guzmán Monterrey Active 137 / 131 40% 1 18.11.2026 -
Julian Zapata Cortulua Active 122 / 126 40% 1 18.11.2026 -
Aarón Molinas Defensa y Justicia Active 131 / 123 40% 1 18.11.2026 -
Alan Cervantes Club America Active 132 / 122 40% 1 18.11.2026 -
Jesús Ricardo Angulo Toluca Active 130 / 128 40% 3 15.11.2026 -
Orbelín Pineda Monterrey Active 142 / 147 40% 3 15.11.2026 -
Tiago Palacios Estudiantes Active 122 / 134 40% 3 15.11.2026 -
Richard Ledezma Guadalajara Active 128 / 132 40% 3 14.11.2026 -
José Castillo Guadalajara Active 124 / 125 40% 1 14.11.2026 -
Santiago Núñez Estudiantes Active 132 / 127 40% 2 13.11.2026 -
Kevin Álvarez Club America Active 125 / 124 40% 2 13.11.2026 -
Nathan Silva Monterrey Active 127 / 125 40% 1 13.11.2026 -
Carlos Rodríguez Cruz Azul Active 133 / 144 40% 3 12.11.2026 -
Leandro Lozano Boca Juniors Active 120 / 121 40% 1 12.11.2026 -
Felipe Peña Biafore Lanús Active 132 / 124 40% 4 11.11.2026 -
Rômulo Tigres Active 125 / 114 40% 1 11.11.2026 -
Richard Martinez Veracruz Active 122 / 133 40% 3 10.11.2026 -
Facundo Miño Deportivo Riestra Active 118 / 125 40% 1 10.11.2026 -
Siro Rosané Estudiantes Active 120 / 117 40% 1 10.11.2026 -
Gerardo Arteaga Monterrey Active 119 / 135 40% 7 08.11.2026 -
Damián Fernández Defensa y Justicia Active 126 / 129 40% 1 08.11.2026 -
Ricardo Chávez Monterrey Active 122 / 128 40% 1 08.11.2026 -
Mateo Clemente San Lorenzo Active 112 / 108 40% 2 07.11.2026 -
Erick Reyes Toluca Active 131 / 138 40% 1 07.11.2026 Needs More Info
Alejandro Zendejas Club America Active 135 / 131 40% 5 06.11.2026 -
Juan Pablo Domínguez Leon Active 129 / 134 40% 2 05.11.2026 -
Nicolás Castro Toluca Active 137 / 118 40% 2 04.11.2026 -
Iván Villalba Independiente Rivadavia Active 118 / 119 40% 1 03.11.2026 -
Marcelino Moreno Lanús Active 125 / 130 40% 1 02.11.2026 -
Pedro Vite Pumas UNAM Active 130 / 116 40% 1 29.10.2026 -
Jesús Angulo Tigres Active 137 / 135 40% 1 28.10.2026 -
Joaquim Tigres Active 131 / 133 40% 1 28.10.2026 -
Salvador Reyes Leon Active 129 / 129 40% 1 27.10.2026 -
Jaminton Campaz Rosario Central Active 133 / 120 40% 1 26.10.2026 -
Juan Brunetta Tigres Active 138 / 134 40% 4 24.10.2026 -
Fernando Valenzuela Queretaro Active 124 / 133 40% 3 22.10.2026 -
Carlos Gruezo Santos Laguna Active 131 / 118 40% 2 22.10.2026 -
Beau Reus Waasland-Beveren Active 130 / 127 40% 3 21.10.2026 -
Emanuel Coronel Rosario Central Active 133 / 129 40% 1 21.10.2026 -
Willer Ditta Cruz Azul Active 134 / 133 40% 1 21.10.2026 -
Manuel Rios La Equidad Active 101 / 101 40% 2 18.10.2026 -
Killian Cahill Leyton Orient Active 108 / 114 40% 2 18.10.2026 -
Santino Barbi Talleres Active 107 / 117 40% 3 17.10.2026 Monitor
Ángel Maciel Tacuarembo Active 105 / 104 40% 1 17.10.2026 -
Radek Vítek Middlesbrough Active 132 / 129 40% 1 17.10.2026 -
Nahuel Galardi Maipú Active 105 / 109 40% 1 16.10.2026 -
Jeremías Martinet River Plate Active 103 / 115 40% 1 15.10.2026 -
Tomáš Frühwald Bohemians 1905 Active 110 / 115 40% 1 13.10.2026 -
Vincent Edafe Warri Wolves Active 85 / 89 40% 1 13.10.2026 -
Miguel Acosta Argentinos Juniors Active 113 / 105 40% 1 11.10.2026 -
Jorge Sánchez Atlas Active 122 / 135 40% 2 09.10.2026 -
Gino Santilli Banfield Active 109 / 115 40% 1 09.10.2026 -
Eliás Montiel Pachuca Active 135 / 137 40% 1 09.10.2026 -
Facundo Vila Estudiantes Active 101 / 105 40% 1 07.10.2026 -
Duvan Rangel La Equidad Active 132 / 138 40% 2 06.10.2026 -
Brian Rodríguez Club America Active 127 / 128 40% 2 06.10.2026 -
Álvaro Angulo Pumas UNAM Active 134 / 131 40% 4 06.10.2026 -
Svetoslav Vutsov Levski Active 132 / 132 40% 2 30.09.2026 -
Federico Varese Racing Active 109 / 116 40% 1 30.09.2026 -
Fernando Beltrán Leon Active 120 / 126 40% 1 28.09.2026 -
Gustavo Calderari Colegiales Active 92 / 102 40% 1 23.09.2026 -
Filip Marschall Stevenage Active 101 / 115 40% 1 21.09.2026 -
José Paradela Cruz Azul Active 140 / 141 40% 2 16.09.2026 -
Bryan González Guadalajara Active 123 / 136 40% 1 16.09.2026 -
Ángel González Libertad Active 110 / 111 40% 1 13.09.2026 -
Matías Molina Independiente Active 100 / 108 40% 1 13.09.2026 -
Leonardo Gonzalez Cortulua Active 126 / 120 40% 1 11.09.2026 -
Lucas Souto Defensa y Justicia Active 118 / 121 40% 1 08.09.2026 -
Omar Campos Cruz Azul Active 130 / 116 40% 1 08.09.2026 -
Sergio Reguilón Inter Miami CF Active 146 / 130 40% 2 07.09.2026 -
Aliou Dieng Valencia Active 131 / 134 40% 1 07.09.2026 -
Adalberto Carrasquilla Pumas UNAM Active 131 / 128 40% 1 05.09.2026 -
Agustín Palavecino Cruz Azul Active 143 / 133 40% 2 04.09.2026 -
Gonzalo Piovi Cruz Azul Active 124 / 125 40% 2 30.08.2026 -
Allan Saint-Maximin Charlotte Football Club Active 139 / 142 40% 1 27.08.2026 -
Víctor Guzmán Toluca Active 135 / 128 40% 1 25.08.2026 -
Juninho Pumas UNAM Active 120 / 134 40% 4 24.08.2026 -
Paxten Aaronson Colorado Rapids Active 128 / 126 40% 1 24.08.2026 -
Leonardo Borja La Equidad Active 150 / 150 40% 1 22.08.2026 -
Cristian Roldan Seattle Sounders Active 133 / 120 40% 1 22.08.2026 -
Ryan Gauld Vancouver Whitecaps Active 127 / 140 40% 1 20.08.2026 -
Efraín Álvarez Guadalajara Active 122 / 122 40% 1 16.08.2026 -
Rodrigo Echeverría Leon Active 121 / 131 40% 1 16.08.2026 -
Dani Raba Standard Liege Active 129 / 128 40% 2 15.08.2026 -
Diego Lainez Tigres Active 119 / 133 40% 1 11.08.2026 -
Liel Abada Charlotte Football Club Active 138 / 123 40% 1 04.08.2026 -
Pablo Durán Celta Active 135 / 133 40% 1 01.08.2026 -